Archival Weather

Chicago O'Hare International

Chicago, Illinois (KORD)

Report from: Thursday, November 24, 2022 12:51 AM CST
Current time: Sunday, December 4, 2022 7:12 AM CST

Current weather
Weather history
Weather forecast

Temperature6.1°C (43.0°F)
Wind chill3.8°C (38.8°F)
Dew point1.1°C (34.0°F)
Winds 6 kts (3.1 m/s, 6.9 mph) South (170°)
Visibility10 mi. (16.1 km)
Clouds Ceiling: Broken clouds 22,000 ft. (6,706 m)
Altimeter30.15 in.Hg (1021 mB)
Relative humidity70 %
Density altitude-1,236 ft. (-377 m)
Sea-level pressure102.1 kPa (1021 mB, 30.15 in.Hg)
Remarks System requires maintenance
Automated weather observing station with precipitation discriminator
Flight conditions Visual Meteorological Conditions
Raw dataKORD 240651Z 17006KT 10SM BKN220 06/01 A3015 RMK AO2 SLP211 T00610011 $
An error has occurred. This application may no longer respond until reloaded. Reload 🗙